Tiempo atmosférico en la estación meteorológica de Don Benito, Badajoz (273 m.)



Fecha
DESCASC
Temp. máxima en grados centígrados (hora)
DESCASC
Temp. mínima en grados centígrados (hora)
DESCASC
Temp. media en grados centígrados
DESCASC
Racha de viento máxima en m/sg (hora)
DESCASC
Velocidad máxima media en intervalos de 10 minutos(hora)
DESCASC
Precipitaciones diarias en mm
DESCASC
Precipitaciones de 00:00 a 06:00 en mm
DESCASC
Precipitaciones de 06:00 a 12:00 en mm
DESCASC
Precipitaciones de 12:00 a 18:00 en mm
DESCASC
Precipitaciones de 18:00 a 24:00 en mm
DESCASC
22-11-2020 19.5 (15:00) 7.2 (07:30) 13.3 3.06 (11:40) 1.67 (13:20) 0 0 0 0 0
21-11-2020 19.5 (15:30) 7 (06:50) 13.3 4.72 (15:00) 2.22 (15:00) 0 0 0 0 0
20-11-2020 21.7 (15:50) 10.2 (08:20) 16 5.28 (13:30) 2.5 (13:20) 0 0 0 0 0
19-11-2020 23.6 (16:20) 11.7 (00:00) 17.7 3.61 (14:00) 1.67 (10:20) 0.2 0.2 0 0 0
18-11-2020 23.5 (16:00) 10.8 (00:00) 17.2 4.17 (12:40) 1.94 (13:20) 0 0 0 0 0
17-11-2020 19.4 (16:50) 11.8 (00:00) 15.6 4.72 (12:00) 2.5 (10:10) 0.2 0 0.2 0 0
16-11-2020 20.6 (15:40) 12.6 (00:00) 16.6 4.72 (16:40) 2.5 (02:10) 0 0 0 0 0
15-11-2020 24.7 (16:20) 14.7 (00:00) 19.7 4.17 (15:40) 2.5 (15:40) 0 0 0 0 0
14-11-2020 18.9 (16:40) 14.4 (00:00) 16.6 5.28 (14:30) 2.78 (14:30) 5.4 1 3.8 0.6 0
13-11-2020 18.7 (16:20) 9.2 (00:00) 14 5 (14:30) 2.22 (14:30) 0 0 0 0 0
12-11-2020 21.4 (15:50) 11.3 (00:00) 16.3 6.39 (15:30) 2.78 (15:10) 0 0 0 0 0
11-11-2020 20.5 (14:20) 9.9 (00:00) 15.2 5.28 (11:00) 2.22 (11:20) 0 0 0 0 0
10-11-2020 20.2 (15:50) 9.5 (00:00) 14.9 4.44 (15:20) 2.78 (23:20) 0.2 0 0.2 0 0
09-11-2020 19.7 (16:20) 12 (00:00) 15.9 4.44 (10:00) 2.78 (10:00) 9.2 9.2 0 0 0
08-11-2020 21.1 (15:30) 11.7 (00:00) 16.4 7.22 (14:30) 4.44 (14:30) 1 0 0 0 1
07-11-2020 20.1 (16:30) 13.2 (00:00) 16.7 8.61 (13:00) 4.17 (08:30) 5.4 5.4 0 0 0
06-11-2020 22 (14:50) 13.7 (00:00) 17.8 9.17 (17:40) 4.72 (03:00) 1 0 0 0.4 0.6
05-11-2020 16 (12:10) 13.1 (00:00) 14.6 10.83 (15:00) 6.39 (14:40) 10 3 2.6 4.4 0
04-11-2020 17.7 (14:10) 13.3 (00:00) 15.5 6.67 (22:30) 2.78 (21:50) 1.8 0 1.6 0 0.2
03-11-2020 21.2 (17:20) 14.6 (00:00) 17.9 3.89 (08:40) 1.94 (08:30) 0 0 0 0 0
02-11-2020 22 (16:00) 12.2 (00:00) 17.1 2.78 (23:40) 1.67 (19:30) 0 0 0 0 0
01-11-2020 23.6 (16:30) 11.5 (00:00) 17.6 2.78 (15:50) 1.67 (22:00) 0 0 0 0 0
31-10-2020 26.1 (16:30) 11.1 (00:00) 18.6 3.06 (15:40) 1.67 (21:10) 0 0 0 0 0
30-10-2020 26.2 (16:00) 12.1 (00:00) 19.2 4.72 (11:50) 2.78 (11:50) 0 0 0 0 0
29-10-2020 23.7 (16:10) 10.9 (00:00) 17.3 7.22 (12:10) 3.61 (11:20) 0 0 0 0 0
28-10-2020 20.2 (16:00) 13.1 (00:00) 16.7 3.33 (14:10) 1.67 (14:10) 0 0 0 0 0
27-10-2020 17.1 (17:20) 7.5 (00:00) 12.3 7.22 (15:30) 2.5 (14:50) 0 0 0 0 0

Gráficas

Temp. máximas Temp. mínimas Temp. medias Precipitaciones Rachas de viento máximas Velocidades máximas media en intervalos de 10 minutos

Datos horarios

Fecha y hora oficial Temperatura (ºC) Velocidad del viento (km/h) Dirección del viento Racha (km/h) Dirección de racha Precipitación (mm) Presión (hPa) Tendencia (hPa) Humedad (%)
2020-11-25 23:00:00 12.4 6 Este 14 Sudeste 0 977.4 0.2 76
2020-11-25 22:00:00 12.5 8 Este 18 Sudeste 0 977.3 -0.1 77
2020-11-25 21:00:00 13.2 10 Sur 27 Sudeste 0 977 0 73
2020-11-25 20:00:00 13.3 12 Sudeste 26 Sudeste 0 977.2 0.1 77
2020-11-25 19:00:00 13.3 13 Sur 37 Sudeste 0 977.4 0.2 78
2020-11-25 18:00:00 13.6 10 Sur 26 Sudeste 0 977 -0.8 75
2020-11-25 17:00:00 14.4 8 Sur 22 Sur 0 977.1 -1.9 73
2020-11-25 16:00:00 14.6 13 Sudeste 23 Sudeste 0 977.2 -3.2 77
2020-11-25 15:00:00 14.4 12 Sudeste 23 Sudeste 0.2 977.8 -- 83
2020-11-25 14:00:00 13.5 11 Sudeste 19 Este 0.6 979 -- 87
2020-11-25 13:00:00 13.2 7 Sudeste 17 Sur 1.2 980.4 -- 86
2020-11-25 12:00:00 13.7 6 Sur 26 Sudeste 0.2 981.6 -- 79
2020-11-25 11:00:00 14 9 Sudeste 22 Sudeste 0 982 -- 73
2020-11-25 10:00:00 12.6 12 Sudeste 22 Sudeste 0 981.9 -- 76
2020-11-25 09:00:00 11.6 12 Sudeste 24 Sudeste 0 982.1 -- 78
2020-11-25 08:00:00 10.5 11 Sudeste 18 Sudeste 0 982.8 -- 84
2020-11-25 07:00:00 9.7 10 Sudeste 14 Sudeste 0 983.1 -- 86
2020-11-25 06:00:00 9.6 6 Sudeste 10 Sudeste 0 983.4 -- 87
2020-11-25 05:00:00 8.7 3 Sudeste 5 Sudeste 0 984.2 -- 88
2020-11-25 04:00:00 9.3 3 Oeste 5 Oeste 0 984.9 -- 87
2020-11-25 03:00:00 9.8 2 Sur 5 Sur 0 985.1 -- 83
2020-11-25 02:00:00 11 2 Este 5 Sudeste 0 985.5 -- 80
2020-11-25 01:00:00 11.5 0 Calma 8 Sudeste 0 986.3 -- 79
2020-11-25 00:00:00 11.9 4 Sudeste 10 Sudeste 0 986.6 -- 76
2020-11-24 23:00:00 12.3 6 Sudeste 10 Sudeste 0 986.9 -- 73
2020-11-24 22:00:00 12.1 5 Sudeste 12 Sudeste 0 987.4 -- 75
2020-11-24 21:00:00 12.9 5 Sudeste 10 Sudeste 0 987.6 -- 72
2020-11-24 20:00:00 13.1 5 Sudeste 9 Sudeste 0 988 -- 72
2020-11-24 19:00:00 14.4 5 Este 9 Sudeste 0 988.1 -- 63
2020-11-24 18:00:00 14.9 0 Calma 7 Norte 0 988 -- 63
2020-11-24 17:00:00 16 3 Norte 8 Noroeste 0 988 -- 58
2020-11-24 16:00:00 16.6 4 Noroeste 14 Noroeste 0 988.3 -- 54
2020-11-24 15:00:00 16.5 5 Oeste 12 Noroeste 0 989 -- 54
2020-11-24 14:00:00 15.4 5 Oeste 10 Oeste 0 990 -- 58
2020-11-24 13:00:00 14.2 3 Norte 9 Norte 0 990.8 -- 59
2020-11-24 12:00:00 12.6 4 Noroeste 7 Noroeste 0 991.8 -- 63
2020-11-24 11:00:00 10.1 3 Norte 7 Norte 0 992.3 -- 74
2020-11-24 10:00:00 8.1 2 Norte 5 Norte 0 992.3 -- 81
2020-11-24 09:00:00 5.8 0 Calma 3 Nordeste 0 991.9 -- 88
2020-11-24 08:00:00 5 0 Calma 7 Sudeste 0 991.6 -- 87
2020-11-24 07:00:00 5.3 3 Sudeste 5 Sudeste 0 991.4 -- 87
2020-11-24 06:00:00 5.6 0 Calma 4 Nordeste 0 991.2 -- 88
2020-11-24 05:00:00 5.8 3 Norte 8 Nordeste 0 991.4 -- 88
2020-11-24 04:00:00 5.8 2 Sudeste 9 Sudeste 0 991.7 -- 83
2020-11-24 03:00:00 6.3 3 Sur 6 Sur 0 992 -- 83
2020-11-24 02:00:00 7.3 0 Calma 4 Nordeste 0 992.2 -- 84
2020-11-24 01:00:00 8 0 Calma 5 Noroeste 0 992.5 -- 79
2020-11-24 00:00:00 9.5 0 Calma 8 Este 0 992.7 -- 72
2020-11-23 23:00:00 10 2 Nordeste 7 Sudeste 0 993.1 -- 72
2020-11-23 22:00:00 10.1 3 Sudeste 6 Sur 0 993.3 -- 73
2020-11-23 21:00:00 11.4 6 Sur 9 Sur 0 993.2 -- 68
2020-11-23 20:00:00 12 4 Sudeste 6 Sudeste 0 992.9 -- 62
2020-11-23 19:00:00 13.5 2 Este 4 Este 0 992.6 -- 58
2020-11-23 18:00:00 15.1 0 Calma 9 Nordeste 0 992.5 -- 53
2020-11-23 17:00:00 17.3 3 Nordeste 10 Norte 0 992.3 -- 47
2020-11-23 16:00:00 18.1 3 Norte 10 Norte 0 992.6 -- 48
2020-11-23 15:00:00 17.7 4 Norte 10 Norte 0 993.1 -- 51
2020-11-23 14:00:00 17.3 3 Nordeste 12 Nordeste 0 993.7 -- 52
2020-11-23 13:00:00 15.8 4 Nordeste 10 Norte 0 994.5 -- 56
2020-11-23 12:00:00 14.4 5 Sudeste 11 Nordeste 0 995.3 -- 58
2020-11-23 11:00:00 13.3 4 Este 10 Nordeste 0 995.4 -- 65
2020-11-23 10:00:00 11.4 4 Este 9 Este 0 995.2 -- 72
2020-11-23 09:00:00 8.7 5 Este 12 Este 0 994.5 -- 93
2020-11-23 08:00:00 7 3 Nordeste 6 Nordeste 0 994.3 -- 94
2020-11-23 07:00:00 7.2 3 Este 6 Este 0 993.9 -- 94
2020-11-23 06:00:00 6.6 0 Calma 5 Sudeste 0 993.8 -- 93
2020-11-23 05:00:00 7 3 Nordeste 5 Norte 0 993.9 -- 93
2020-11-23 04:00:00 7.4 0 Calma 6 Noroeste 0 994.1 -- 91
2020-11-23 03:00:00 8.4 2 Este 4 Sudoeste 0 994.1 -- 89
2020-11-23 02:00:00 8.9 2 Este 7 Sudeste 0 994.3 -- 88
2020-11-23 01:00:00 9 0 Calma 4 Norte 0 994.7 -- 88
2020-11-23 00:00:00 10 5 Sudeste 8 Sudeste 0 994.4 -- 84
2020-11-22 23:00:00 10.5 3 Sudeste 8 Sudeste 0 994.6 -- 82
2020-11-22 22:00:00 11.1 3 Sur 6 Sudeste 0 994.5 -- 80
2020-11-22 21:00:00 12 0 Calma 5 Noroeste 0 994.3 -- 77
2020-11-22 20:00:00 13.5 0 Calma 3 Nordeste 0 993.9 -- 71
2020-11-22 19:00:00 14.2 0 Calma 5 Nordeste 0 993.5 -- 70
2020-11-22 18:00:00 15.8 3 Nordeste 7 Este 0 993.4 -- 60
2020-11-22 17:00:00 18.1 4 Nordeste 9 Nordeste 0 993.3 -- 53
2020-11-22 16:00:00 18.9 3 Nordeste 9 Nordeste 0 993.3 -- 51
2020-11-22 15:00:00 19.2 3 Nordeste 10 Nordeste 0 993.7 -- 50
2020-11-22 14:00:00 18.2 5 Este 10 Nordeste 0 994.4 -- 53
2020-11-22 13:00:00 17.5 5 Nordeste 11 Nordeste 0 995.3 -- 57
2020-11-22 12:00:00 15.5 5 Nordeste 11 Nordeste 0 996 -- 62
2020-11-22 11:00:00 14.1 3 Este 7 Este 0 996.2 -- 65
2020-11-22 10:00:00 11.5 4 Este 6 Nordeste 0 996 -- 72
2020-11-22 09:00:00 8.6 3 Este 5 Sudeste 0 995.7 -- 90
2020-11-22 08:00:00 7.2 2 Nordeste 3 Nordeste 0 995.4 1 92
2020-11-22 07:00:00 7.4 0 Calma 4 Norte 0 995.1 -- 91
2020-11-22 06:00:00 7.9 3 Noroeste 4 Norte 0 994.6 -- 91
2020-11-22 05:00:00 8.2 2 Sudeste 4 Sudeste 0 994.4 -- 90
2020-11-22 04:00:00 8.4 0 Calma 3 Sudoeste 0 994.4 -- 89
2020-11-22 03:00:00 8.5 2 Sur 5 Noroeste 0 994.3 -- 89
2020-11-22 02:00:00 9 2 Nordeste 6 Noroeste 0 994.3 -- 86
2020-11-22 01:00:00 9.6 0 Calma 6 Sudoeste 0 994.2 -- 82
2020-11-22 00:00:00 10.3 2 Este 7 Este 0 994 -- 80
2020-11-21 23:00:00 11 2 Nordeste 5 Este 0 993.9 -- 77
2020-11-21 22:00:00 12.5 3 Nordeste 12 Sudeste 0 993.5 -- 67
2020-11-21 21:00:00 13.8 8 Sudeste 12 Sudeste 0 993.3 -- 61
2020-11-21 20:00:00 13.9 5 Sudeste 9 Sudeste 0 993.2 -- 60
2020-11-21 19:00:00 15.3 3 Este 9 Nordeste 0 993 -- 55
2020-11-21 18:00:00 17.3 4 Este 17 Este 0 992.6 -- 46
2020-11-21 17:00:00 18.9 6 Este 14 Este 0 992.3 -- 39
2020-11-21 16:00:00 19.3 7 Este 15 Sudeste 0 992.2 -- 35
2020-11-21 15:00:00 18.8 8 Nordeste 17 Nordeste 0 992.4 -- 36
2020-11-21 14:00:00 18.3 6 Nordeste 11 Nordeste 0 992.8 -- 34
2020-11-21 13:00:00 17.1 6 Nordeste 16 Este 0 993.7 -- 37
2020-11-21 12:00:00 15.4 8 Este 16 Este 0 994.5 -- 44
2020-11-21 11:00:00 13.6 7 Este 15 Este 0 994.6 -- 48
2020-11-21 10:00:00 11.9 4 Sudeste 10 Sudeste 0 994.3 -- 56
2020-11-21 09:00:00 9.1 3 Este 9 Nordeste 0 993.7 -- 70
2020-11-21 08:00:00 7.8 5 Nordeste 7 Nordeste 0 993.3 -- 75
2020-11-21 07:00:00 7.2 2 Este 5 Sudeste 0 992.7 -- 78
2020-11-21 06:00:00 7.3 0 Calma 8 Nordeste 0 992.7 -- 78
2020-11-21 05:00:00 8 4 Nordeste 6 Nordeste 0 992.7 -- 77
2020-11-21 04:00:00 8.4 2 Norte 6 Nordeste 0 992.8 -- 79
2020-11-21 03:00:00 8.7 4 Norte 8 Nordeste 0 992.7 -- 80
2020-11-21 02:00:00 9.2 3 Noroeste 7 Sudeste 0 993 -- 84
2020-11-21 01:00:00 9.4 4 Sudeste 8 Sudoeste 0 993.3 -- 80
2020-11-21 00:00:00 10.5 2 Este 9 Sur 0 993.5 -- 81
2020-11-20 23:00:00 11.3 0 Calma 9 Sur 0 993.5 -- 78
2020-11-20 22:00:00 12.5 2 Oeste 8 Sudoeste 0 993.3 -- 77
2020-11-20 21:00:00 13.7 0 Calma 4 Sudoeste 0 993.3 -- 75
2020-11-20 20:00:00 15 2 Este 4 Nordeste 0 993.1 -- 69
2020-11-20 19:00:00 16.6 3 Norte 6 Norte 0 993.3 -- 63
2020-11-20 18:00:00 18.2 3 Norte 7 Norte 0 993.5 -- 57
2020-11-20 17:00:00 20.6 4 Noroeste 12 Nordeste 0 993.5 -- 47
2020-11-20 16:00:00 21.3 3 Nordeste 10 Nordeste 0 993.7 -- 43
2020-11-20 15:00:00 21.4 5 Este 14 Este 0 993.8 -- 43
2020-11-20 14:00:00 20.8 7 Nordeste 19 Sudeste 0 994.6 -- 42
2020-11-20 13:00:00 20 6 Este 17 Sudeste 0 995.5 -- 47
2020-11-20 12:00:00 18.1 6 Nordeste 13 Este 0 996.5 -- 62
2020-11-20 11:00:00 15.9 4 Nordeste 10 Nordeste 0 996.5 -- 71
2020-11-20 10:00:00 14.4 3 Este 7 Nordeste 0 996.3 -- 75
2020-11-20 09:00:00 11.3 3 Sudeste 6 Sudeste 0 996.2 -- 90
2020-11-20 08:00:00 10.7 2 Este 6 Nordeste 0 996 -- 92
2020-11-20 07:00:00 10.6 0 Calma 4 Sudeste 0 995.9 -- 91
2020-11-20 06:00:00 11.1 2 Nordeste 7 Sudeste 0 995.9 -- 91
2020-11-20 05:00:00 11.7 0 Calma 5 Nordeste 0 996.1 -- 92
2020-11-20 04:00:00 11.9 3 Nordeste 6 Nordeste 0 996.5 -- 93
2020-11-20 03:00:00 12 2 Nordeste 5 Sudeste 0 996.6 -- 92
2020-11-20 02:00:00 12.1 3 Sudeste 7 Norte 0 996.7 -- 91
2020-11-20 01:00:00 12.7 2 Sudeste 6 Sudoeste 0 997.2 -- 89
2020-11-20 00:00:00 13.5 0 Calma 3 Sudeste 0 997.5 -- 87
2020-11-19 23:00:00 14.4 0 Calma 5 Sudeste 0 997.5 -- 85
2020-11-19 22:00:00 15.1 3 Sur 5 Sudeste 0 997.1 -- 82
2020-11-19 21:00:00 16 0 Calma 5 Sudeste 0 997.3 -- 80
2020-11-19 20:00:00 17.2 4 Sudeste 6 Sudeste 0 997.2 -- 75
2020-11-19 19:00:00 18.8 2 Norte 8 Norte 0 997.1 -- 70
2020-11-19 18:00:00 20.2 4 Norte 9 Norte 0 996.7 -- 66
2020-11-19 17:00:00 22.5 3 Norte 11 Norte 0 996.4 -- 52
2020-11-19 16:00:00 23.3 4 Norte 10 Sudeste 0 996.4 -- 45
2020-11-19 15:00:00 23.3 4 Este 11 Noroeste 0 996.7 -- 42
2020-11-19 14:00:00 21.5 6 Norte 13 Norte 0 997.3 -- 53
2020-11-19 13:00:00 20.6 5 Norte 13 Norte 0 997.9 -- 63
2020-11-19 12:00:00 18.7 4 Norte 10 Norte 0 998 -- 70
2020-11-19 11:00:00 17.3 3 Este 9 Sudeste 0 997.6 -- 71
2020-11-19 10:00:00 14.4 4 Nordeste 9 Nordeste 0 997.7 -- 86
2020-11-19 09:00:00 12.5 4 Nordeste 7 Nordeste 0 996.9 -- 93
2020-11-19 08:00:00 12 3 Este 10 Nordeste 0 996 -- 93
2020-11-19 07:00:00 11.9 3 Este 6 Nordeste 0 995.5 -- 94
2020-11-19 06:00:00 12 3 Nordeste 6 Nordeste 0 995.1 -- 94
2020-11-19 05:00:00 12.1 3 Nordeste 6 Norte 0.2 994.8 -- 93
2020-11-19 04:00:00 13.3 3 Este 9 Este 0 994.6 -- 93
2020-11-19 03:00:00 13.4 3 Este 7 Nordeste 0 994.5 -- 93
2020-11-19 02:00:00 13.4 2 Nordeste 6 Nordeste 0 994.5 -- 93
2020-11-19 01:00:00 13.3 2 Nordeste 6 Noroeste 0 994.9 -- 93
2020-11-19 00:00:00 14.1 0 Calma 5 Sudeste 0 995 -- 90
2020-11-18 23:00:00 14.6 0 Calma 4 Sudeste 0 994.8 -- 89
2020-11-18 22:00:00 15.4 3 Noroeste 4 Noroeste 0 994.6 -- 87
2020-11-18 21:00:00 16.2 2 Sudeste 5 Nordeste 0 994.1 -- 82
2020-11-18 20:00:00 17.6 3 Norte 5 Norte 0 993.9 -- 78
2020-11-18 19:00:00 18.6 3 Nordeste 6 Nordeste 0 993.5 -- 74
2020-11-18 18:00:00 20.4 2 Norte 8 Nordeste 0 993.2 -- 67
2020-11-18 17:00:00 22.5 3 Nordeste 12 Nordeste 0 992.9 -- 52
2020-11-18 16:00:00 23.4 5 Este 13 Nordeste 0 992.9 -- 50
2020-11-18 15:00:00 23.1 5 Nordeste 15 Nordeste 0 993.1 -- 52
2020-11-18 14:00:00 22.3 5 Este 14 Este 0 993.5 -- 59
2020-11-18 13:00:00 20.5 6 Nordeste 15 Nordeste 0 994.3 -- 65
2020-11-18 12:00:00 18.6 5 Este 13 Nordeste 0 994.9 -- 73
2020-11-18 11:00:00 16.6 6 Nordeste 13 Nordeste 0 995.2 -- 80
2020-11-18 10:00:00 14.2 6 Nordeste 12 Nordeste 0 995 -- 92
2020-11-18 09:00:00 12.3 5 Nordeste 10 Nordeste 0 994.6 -- 96
2020-11-18 08:00:00 11.1 3 Nordeste 7 Este 0 994.1 -- 96
2020-11-18 07:00:00 11.1 2 Oeste 10 Sudeste 0 994 -- 95
2020-11-18 06:00:00 11.8 4 Este 8 Este 0 993.8 -- 96
2020-11-18 05:00:00 11 2 Este 4 Este 0 993.8 -- 95
2020-11-18 04:00:00 11.1 2 Sudoeste 3 Sudoeste 0 994 -- 95
2020-11-18 03:00:00 11.7 0 Calma 3 Noroeste 0 994 -- 95
2020-11-18 02:00:00 12.3 2 Nordeste 4 Nordeste 0 994.1 -- 95
2020-11-18 01:00:00 12.8 2 Nordeste 3 Nordeste 0 994.3 -- 94
2020-11-18 00:00:00 13.4 0 Calma 3 Sudoeste 0 994.3 -- 94
2020-11-17 23:00:00 13.9 0 Calma 4 Sudoeste 0 994.4 -- 94
2020-11-17 22:00:00 14.5 2 Sudeste 6 Sudoeste 0 994.3 -- 93
2020-11-17 21:00:00 15.1 3 Nordeste 4 Este 0 994 -- 92
2020-11-17 20:00:00 15.8 0 Calma 4 Este 0 993.9 -- 90
2020-11-17 19:00:00 16.5 2 Nordeste 5 Nordeste 0 993.4 -- 89
2020-11-17 18:00:00 17.9 2 Nordeste 9 Nordeste 0 993.2 -- 83
2020-11-17 17:00:00 19.3 4 Nordeste 12 Nordeste 0 993.2 -- 77
2020-11-17 16:00:00 18.7 4 Nordeste 13 Nordeste 0 993.3 -- 79
2020-11-17 15:00:00 17.6 5 Nordeste 12 Nordeste 0 993.6 -- 86
2020-11-17 14:00:00 15.4 6 Nordeste 14 Sudeste 0 994 -- 94
2020-11-17 13:00:00 14.5 7 Este 17 Este 0 994.6 -- 96
2020-11-17 12:00:00 13.7 8 Este 17 Este 0 995.2 -- 96
2020-11-17 11:00:00 12.9 7 Este 16 Este 0 995.4 -- 96
2020-11-17 10:00:00 12.9 6 Este 13 Este 0 995 -- 96
2020-11-17 09:00:00 12.8 5 Sudeste 9 Sudeste 0 994.6 -- 96
2020-11-17 08:00:00 13.2 5 Este 10 Este 0 993.9 -- 95
2020-11-17 07:00:00 12.7 5 Este 15 Este 0.2 993.6 -- 95
2020-11-17 06:00:00 12.8 5 Nordeste 10 Nordeste 0 993.5 -- 95
2020-11-17 05:00:00 11.9 3 Sudeste 9 Sur 0 993.5 -- 95
2020-11-17 04:00:00 12.8 3 Nordeste 7 Nordeste 0 993.5 -- 95
2020-11-17 03:00:00 12.8 4 Este 9 Este 0 993.6 -- 94
2020-11-17 02:00:00 13.2 2 Este 4 Este 0 993.6 -- 94
2020-11-17 01:00:00 12.6 0 Calma 4 Nordeste 0 993.6 -- 94
2020-11-17 00:00:00 12.6 3 Norte 6 Norte 0 993.7 -- 94
2020-11-16 23:00:00 13.4 3 Sudeste 8 Sur 0 993.6 -- 93
2020-11-16 22:00:00 14.1 5 Sur 9 Sur 0 993.5 -- 93
2020-11-16 21:00:00 14.6 6 Sur 9 Sudoeste 0 993.1 -- 93
2020-11-16 20:00:00 15.2 5 Sur 10 Sudoeste 0 992.8 -- 91
2020-11-16 19:00:00 15.8 2 Oeste 5 Oeste 0 992.2 -- 90
2020-11-16 18:00:00 17.4 2 Sudoeste 11 Oeste 0 991.8 -- 83
2020-11-16 17:00:00 19.1 7 Oeste 17 Oeste 0 991.7 -- 76
2020-11-16 16:00:00 20.2 5 Oeste 11 Sudoeste 0 991.8 -- 70
2020-11-16 15:00:00 19.5 6 Noroeste 12 Noroeste 0 992.1 -- 73
2020-11-16 14:00:00 18.5 6 Oeste 15 Noroeste 0 992 -- 79
2020-11-16 13:00:00 17.5 6 Oeste 13 Oeste 0 992.5 -- 88
2020-11-16 12:00:00 16.6 5 Oeste 12 Sudoeste 0 992.8 -- 92
2020-11-16 11:00:00 16.5 5 Oeste 11 Sudoeste 0 992.6 -- 93
2020-11-16 10:00:00 16.2 5 Sudoeste 13 Sudoeste 0 992.1 -- 94
2020-11-16 09:00:00 16.1 6 Sudoeste 13 Sudoeste 0 991.3 -- 94
2020-11-16 08:00:00 16.2 8 Sudoeste 15 Sudoeste 0 990.8 -- 93
2020-11-16 07:00:00 16.7 7 Sudoeste 15 Sudoeste 0 990.7 -- 92
2020-11-16 06:00:00 16.7 4 Oeste 12 Oeste 0 990.4 -- 92
2020-11-16 05:00:00 16.6 5 Sudoeste 9 Sudoeste 0 989.7 -- 91
2020-11-16 04:00:00 16.3 3 Oeste 8 Sudoeste 0 990.1 -- 91
2020-11-16 03:00:00 15.6 4 Sudoeste 13 Sur 0 990.1 -- 91
2020-11-16 02:00:00 15.9 7 Sur 12 Sur 0 990.5 -- 92
2020-11-16 01:00:00 15.9 3 Oeste 6 Noroeste 0 990.8 -- 92
2020-11-16 00:00:00 16 4 Noroeste 8 Noroeste 0 990 -- 89
2020-11-15 23:00:00 16.6 5 Sudoeste 9 Sudoeste 0 989.3 -- 89
2020-11-15 22:00:00 17.3 3 Sur 7 Sur 0 989.5 -- 88
2020-11-15 21:00:00 18.2 2 Norte 10 Este 0 989.5 -- 84
2020-11-15 20:00:00 19.7 7 Este 13 Este 0 988.9 -- 77
2020-11-15 19:00:00 20.1 4 Este 10 Este 0 988.7 -- 75
2020-11-15 18:00:00 20.9 4 Nordeste 9 Nordeste 0 988.6 -- 72
2020-11-15 17:00:00 22.4 4 Norte 14 Oeste 0 988.2 -- 64
2020-11-15 16:00:00 24.2 6 Sudoeste 15 Oeste 0 988.2 -- 53
2020-11-15 15:00:00 23.1 2 Oeste 8 Oeste 0 988.4 -- 62
2020-11-15 14:00:00 22.3 3 Norte 9 Noroeste 0 988.8 -- 63
2020-11-15 13:00:00 21.5 3 Oeste 8 Sudeste 0 989.4 -- 67
2020-11-15 12:00:00 21.2 5 Sudeste 10 Este 0 989.8 -- 68
2020-11-15 11:00:00 19.2 5 Este 10 Nordeste 0 990.2 -- 75
2020-11-15 10:00:00 17.3 4 Este 8 Este 0 989.9 -- 85
2020-11-15 09:00:00 15.2 3 Nordeste 6 Nordeste 0 989.6 -- 93
2020-11-15 08:00:00 14.9 2 Norte 9 Sur 0 989.3 -- 91
2020-11-15 07:00:00 15.8 7 Sudeste 14 Sudeste 0 988.9 -- 90
2020-11-15 06:00:00 15.1 0 Calma 5 Sur 0 989 -- 93
2020-11-15 05:00:00 14.9 2 Noroeste 4 Norte 0 988.9 -- 92
2020-11-15 04:00:00 15.6 0 Calma 7 Sudeste 0 989.1 -- 90
2020-11-15 03:00:00 15.9 4 Sudeste 8 Sudeste 0 989.1 -- 89
2020-11-15 02:00:00 16.1 4 Este 9 Este 0 989.1 -- 87
2020-11-15 01:00:00 15.8 2 Nordeste 7 Sudeste 0 989.5 -- 89
2020-11-15 00:00:00 15.9 5 Sudeste 8 Sudeste 0 989.6 -- 90
2020-11-14 23:00:00 15.9 2 Nordeste 4 Sudeste 0 989.9 -- 92
2020-11-14 22:00:00 16 2 Nordeste 6 Sudeste 0 989.6 -- 90
2020-11-14 21:00:00 15.9 3 Sudeste 7 Sudeste 0 989.2 -- 89
2020-11-14 20:00:00 16.1 0 Calma 5 Sur 0 989.1 -- 90
2020-11-14 19:00:00 16.2 2 Oeste 6 Nordeste 0 988.8 -- 91
2020-11-14 18:00:00 17.3 2 Noroeste 8 Norte 0 988 -- 85
2020-11-14 17:00:00 18.5 4 Norte 16 Noroeste 0 987.8 -- 83
2020-11-14 16:00:00 18.2 7 Noroeste 18 Noroeste 0 987.4 -- 84
2020-11-14 15:00:00 18.2 8 Noroeste 19 Sudoeste 0 987.1 -- 87
2020-11-14 14:00:00 17.8 5 Sur 13 Sur 0.4 987.3 -- 89
2020-11-14 13:00:00 17.3 5 Sur 11 Este 0.2 987.8 -- 89
2020-11-14 12:00:00 16.4 6 Este 14 Este 0 988.3 -- 92
2020-11-14 11:00:00 15.4 7 Este 13 Este 0.4 988.3 -- 93
2020-11-14 10:00:00 15 4 Este 10 Este 3.4 988.2 -- 92
2020-11-14 09:00:00 14.9 5 Este 10 Este 0 987.9 -- 91
2020-11-14 08:00:00 14.6 4 Este 8 Este 0 987.3 -- 93
2020-11-14 07:00:00 14.4 3 Nordeste 9 Este 0 987 -- 93
2020-11-14 06:00:00 14.4 4 Este 8 Nordeste 0 986.8 -- 92
2020-11-14 05:00:00 14.5 4 Nordeste 6 Nordeste 0.2 986.7 -- 91
2020-11-14 04:00:00 14.9 4 Este 9 Este 0.4 987.2 -- 89
2020-11-14 03:00:00 15.1 3 Nordeste 8 Sudeste 0.4 987.4 -- 89
2020-11-14 02:00:00 15.7 4 Sur 8 Sudeste 0 987.7 -- 84
2020-11-14 01:00:00 15.7 4 Sudeste 10 Sudeste 0 988 -- 80
2020-11-14 00:00:00 15.8 2 Este 8 Sudeste 0 988.3 -- 77
2020-11-13 23:00:00 15.5 5 Sudeste 8 Este 0 988.2 -- 77
2020-11-13 22:00:00 15.4 3 Este 6 Sudeste 0 988 -- 76
2020-11-13 21:00:00 16.4 3 Sudeste 9 Este 0 987.8 -- 73
2020-11-13 20:00:00 16.1 3 Este 6 Este 0 987.5 -- 74
2020-11-13 19:00:00 16.4 3 Nordeste 8 Nordeste 0 987.1 -- 73
2020-11-13 18:00:00 17.3 3 Nordeste 10 Nordeste 0 986.9 -- 71
2020-11-13 17:00:00 18.2 5 Nordeste 11 Nordeste 0 986.7 -- 64
2020-11-13 16:00:00 18.4 5 Nordeste 13 Nordeste 0 986.7 -- 64
2020-11-13 15:00:00 18.1 6 Nordeste 18 Este 0 987 -- 64
2020-11-13 14:00:00 17.7 5 Este 16 Sudeste 0 987.7 -- 65
2020-11-13 13:00:00 16.9 4 Nordeste 11 Nordeste 0 988.4 -- 68
2020-11-13 12:00:00 16.3 5 Nordeste 11 Nordeste 0 989.1 -- 67
2020-11-13 11:00:00 15.2 4 Nordeste 10 Nordeste 0 988.9 -- 72
2020-11-13 10:00:00 12.3 4 Este 8 Este 0 988.6 -- 80
2020-11-13 09:00:00 11 2 Nordeste 12 Sudeste 0 988.2 -- 83
2020-11-13 08:00:00 10.3 3 Este 7 Este 0 987.6 -- 83
2020-11-13 07:00:00 9.4 4 Este 6 Sudeste 0 987.3 -- 86
2020-11-13 06:00:00 9.5 3 Este 6 Sudeste 0 987.3 -- 85
2020-11-13 05:00:00 9.5 3 Este 5 Este 0 987 -- 85
2020-11-13 04:00:00 9.6 3 Este 6 Sudeste 0 987.2 -- 85
2020-11-13 03:00:00 10.5 3 Sudeste 9 Este 0 987.3 -- 80
2020-11-13 02:00:00 10.6 2 Nordeste 7 Sudeste 0 987.4 -- 80
2020-11-13 01:00:00 11.5 4 Sudeste 7 Sudeste 0 987.7 -- 75
2020-11-13 00:00:00 11.9 3 Este 5 Nordeste 0 987.6 -- 76
2020-11-12 23:00:00 12.4 3 Nordeste 12 Sudoeste 0 987.4 -- 77
2020-11-12 22:00:00 14.1 3 Este 12 Sudeste 0 987.1 -- 65
2020-11-12 21:00:00 14.5 7 Sudeste 12 Sudeste 0 986.8 -- 67
2020-11-12 20:00:00 15.4 3 Este 8 Nordeste 0 986.9 -- 66
2020-11-12 19:00:00 16.3 4 Nordeste 8 Este 0 986.8 -- 65
2020-11-12 18:00:00 18.8 3 Este 14 Este 0 986.4 -- 48
2020-11-12 17:00:00 20.4 6 Este 18 Nordeste 0 986.5 -- 39
2020-11-12 16:00:00 21.3 7 Este 23 Este 0 986.3 -- 36
2020-11-12 15:00:00 20.7 10 Este 21 Este 0 986.8 -- 43
2020-11-12 14:00:00 20.9 9 Este 19 Este 0 987.5 -- 47
2020-11-12 13:00:00 20.2 7 Este 18 Este 0 988.5 -- 52
2020-11-12 12:00:00 18 7 Este 21 Este 0 989.4 -- 59
2020-11-12 11:00:00 16 7 Este 14 Este 0 989.8 -- 68
2020-11-12 10:00:00 13.6 5 Este 12 Este 0 990 -- 78
2020-11-12 09:00:00 12 3 Nordeste 8 Nordeste 0 989.9 -- 85
2020-11-12 08:00:00 11.5 6 Sudeste 9 Sudeste 0 989.6 -- 83
2020-11-12 07:00:00 11.7 4 Nordeste 10 Nordeste 0 989.3 -- 85
2020-11-12 06:00:00 11.6 3 Nordeste 6 Nordeste 0 989.5 -- 90
2020-11-12 05:00:00 11.4 3 Nordeste 7 Nordeste 0 989.4 -- 92
2020-11-12 04:00:00 11.4 2 Nordeste 6 Nordeste 0 989.8 -- 92
2020-11-12 03:00:00 12 3 Noroeste 8 Sudeste 0 990.1 -- 89
2020-11-12 02:00:00 12.4 3 Este 8 Este 0 990.6 -- 88
2020-11-12 01:00:00 12.3 2 Este 5 Este 0 991 -- 88
2020-11-12 00:00:00 13 2 Nordeste 7 Norte 0 991.1 -- 88
2020-11-11 23:00:00 13.3 0 Calma 4 Nordeste 0 990.8 -- 85
2020-11-11 22:00:00 13.6 0 Calma 9 Sudeste 0 990.5 -- 82
2020-11-11 21:00:00 13.9 4 Sudeste 10 Sudeste 0 990.2 -- 79
2020-11-11 20:00:00 15.1 0 Calma 5 Este 0 990.4 -- 74
2020-11-11 19:00:00 15.7 2 Nordeste 5 Nordeste 0 989.9 -- 73
2020-11-11 18:00:00 17.4 2 Norte 10 Nordeste 0 989.9 -- 65
2020-11-11 17:00:00 19.7 4 Nordeste 13 Nordeste 0 989.7 -- 53
2020-11-11 16:00:00 19.9 6 Nordeste 13 Nordeste 0 989.7 -- 53
2020-11-11 15:00:00 20.3 5 Norte 12 Este 0 990 -- 52
2020-11-11 14:00:00 19.9 5 Este 13 Este 0 990.5 -- 52
2020-11-11 13:00:00 18.8 6 Este 14 Este 0 991.1 -- 57
2020-11-11 12:00:00 17.2 7 Este 18 Este 0 992 -- 63
2020-11-11 11:00:00 15 8 Este 19 Este 0 992.2 -- 68
2020-11-11 10:00:00 13.3 7 Nordeste 13 Nordeste 0 992.4 -- 75
2020-11-11 09:00:00 10.9 4 Nordeste 10 Este 0 992.6 -- 80
2020-11-11 08:00:00 10 6 Este 11 Este 0 992.1 -- 82
2020-11-11 07:00:00 10.3 5 Este 12 Este 0 991.8 -- 81
2020-11-11 06:00:00 10.4 4 Nordeste 10 Este 0 992.1 -- 83
2020-11-11 05:00:00 10.6 5 Este 11 Este 0 992 -- 88
2020-11-11 04:00:00 10.4 6 Sudeste 11 Sudeste 0 992.3 -- 87
2020-11-11 03:00:00 11 3 Este 11 Este 0 992.9 -- 84
2020-11-11 02:00:00 10.8 3 Este 8 Nordeste 0 993.2 -- 85
2020-11-11 01:00:00 11.1 3 Nordeste 9 Este 0 993.3 -- 84
2020-11-11 00:00:00 13.7 5 Este 16 Este 0 993.6 -- 69
2020-11-10 23:00:00 14.1 8 Este 15 Este 0 993.2 -- 66
2020-11-10 22:00:00 12.9 2 Sudeste 10 Sudeste 0 993.5 -- 79
2020-11-10 21:00:00 14.9 4 Sudeste 10 Este 0 992.9 -- 74
2020-11-10 20:00:00 14.7 0 Calma 3 Este 0 993 -- 76
2020-11-10 19:00:00 15.8 0 Calma 4 Nordeste 0 992.7 -- 73
2020-11-10 18:00:00 17.7 3 Norte 7 Norte 0 992.7 -- 64
2020-11-10 17:00:00 19.3 4 Nordeste 16 Este 0 992.9 -- 57
2020-11-10 16:00:00 19.6 8 Nordeste 16 Nordeste 0 992.6 -- 53
2020-11-10 15:00:00 19.5 5 Este 15 Nordeste 0 992.9 -- 58
2020-11-10 14:00:00 18.1 7 Este 15 Sudeste 0 993.6 -- 64
2020-11-10 13:00:00 15.9 4 Norte 8 Norte 0 994.3 -- 77
2020-11-10 12:00:00 13.2 3 Este 7 Nordeste 0 995 -- 93
2020-11-10 11:00:00 11.4 4 Este 8 Este 0 994.9 -- 96
2020-11-10 10:00:00 10.6 0 Calma 5 Norte 0 995 -- 96
2020-11-10 09:00:00 9.9 3 Norte 6 Norte 0.2 994.7 -- 95
2020-11-10 08:00:00 10.3 2 Sudoeste 4 Oeste 0 993.6 -- 95
2020-11-10 07:00:00 9.9 0 Calma 4 Norte 0 993.3 -- 94
2020-11-10 06:00:00 9.7 2 Nordeste 4 Norte 0 993.1 -- 94
2020-11-10 05:00:00 10 0 Calma 3 Sudeste 0 992.9 -- 93
2020-11-10 04:00:00 10.3 4 Sudeste 9 Sudeste 0 992.8 -- 91
2020-11-10 03:00:00 10.6 0 Calma 3 Sur 0 992.8 -- 91
2020-11-10 02:00:00 11.2 2 Sur 9 Sudeste 0 992.9 -- 90
2020-11-10 01:00:00 11.5 4 Sudeste 6 Sur 0 992.9 -- 90
2020-11-10 00:00:00 12 3 Sudoeste 5 Sudoeste 0 992.9 -- 89
2020-11-09 23:00:00 12.5 3 Sudoeste 6 Sudoeste 0 993 -- 87
2020-11-09 22:00:00 13 3 Sur 6 Sudoeste 0 992.8 -- 86
2020-11-09 21:00:00 13.7 2 Sudoeste 7 Noroeste 0 992.3 -- 83
2020-11-09 20:00:00 14.4 2 Sudoeste 5 Sudoeste 0 992.2 -- 77
2020-11-09 19:00:00 15.6 2 Sudoeste 5 Sudoeste 0 991.6 -- 70
2020-11-09 18:00:00 17.2 3 Oeste 10 Oeste 0 991.3 -- 64
2020-11-09 17:00:00 19.5 5 Oeste 12 Oeste 0 990.9 -- 54
2020-11-09 16:00:00 19.3 6 Oeste 15 Oeste 0 990.7 -- 55
2020-11-09 15:00:00 19.4 5 Oeste 15 Sudoeste 0 990.7 -- 56
2020-11-09 14:00:00 17.7 5 Oeste 12 Oeste 0 990.9 -- 65
2020-11-09 13:00:00 16.7 5 Oeste 11 Oeste 0 991.4 -- 74
2020-11-09 12:00:00 15.5 4 Oeste 12 Noroeste 0 991.9 -- 82
2020-11-09 11:00:00 14.4 5 Sudoeste 15 Oeste 0 991.9 -- 90
2020-11-09 10:00:00 14.4 10 Sudoeste 16 Sudoeste 0 991.7 -- 91
2020-11-09 09:00:00 13.4 5 Sudoeste 9 Sudoeste 0 990.9 -- 94
2020-11-09 08:00:00 12.6 3 Sudoeste 10 Oeste 0 989.9 -- 94
2020-11-09 07:00:00 13.6 7 Oeste 13 Sudoeste 0 989.4 -- 94
2020-11-09 06:00:00 14.1 4 Oeste 12 Oeste 0 988.9 -- 94
2020-11-09 05:00:00 14.5 5 Sudoeste 11 Sudoeste 0.6 988.6 -- 94
2020-11-09 04:00:00 14.6 0 Calma 6 Sudeste 0 988.3 -- 94
2020-11-09 03:00:00 14.8 3 Sudeste 9 Sudeste 2 988.4 -- 94
2020-11-09 02:00:00 14.8 6 Sur 12 Sudeste 5.6 988.4 -- 94
2020-11-09 01:00:00 15 2 Noroeste 7 Norte 1 989.1 -- 94
2020-11-09 00:00:00 15.1 3 Norte 5 Sudeste 1 988.7 -- 92
2020-11-08 23:00:00 15.3 2 Nordeste 7 Nordeste 0 988.9 -- 91
2020-11-08 22:00:00 15.5 3 Nordeste 17 Noroeste 0 988.5 -- 89
2020-11-08 21:00:00 17.2 3 Sur 9 Sur 0 988.3 -- 67
2020-11-08 20:00:00 17.3 5 Sudeste 18 Sur 0 988.3 -- 68
2020-11-08 19:00:00 18.1 5 Sur 13 Sur 0 988 -- 61
2020-11-08 18:00:00 18.8 7 Sudeste 18 Sudeste 0 987.6 -- 57
2020-11-08 17:00:00 19.8 6 Sur 21 Sur 0 987.5 -- 53
2020-11-08 16:00:00 20.8 10 Sur 22 Sur 0 987.6 -- 47
2020-11-08 15:00:00 21 9 Sur 26 Sudoeste 0 987.9 -- 48
2020-11-08 14:00:00 20 13 Sur 24 Sur 0 988.5 -- 51
2020-11-08 13:00:00 19.3 7 Sur 22 Sur 0 989.4 -- 60
2020-11-08 12:00:00 18.3 8 Sur 22 Sudeste 0 990.2 -- 64
2020-11-08 11:00:00 16.8 9 Sudeste 22 Este 0 990.2 -- 72
2020-11-08 10:00:00 15.1 10 Sudeste 18 Sudeste 0 990.4 -- 79
2020-11-08 09:00:00 12.8 3 Nordeste 12 Sudeste 0 990.2 -- 85
2020-11-08 08:00:00 12.5 10 Sudeste 21 Sudeste 0 989.7 -- 87
2020-11-08 07:00:00 12.1 12 Sudeste 22 Sudeste 0 989.7 -- 88
2020-11-08 06:00:00 12.3 12 Sudeste 21 Sudeste 0 989.7 -- 87
2020-11-08 05:00:00 11.8 6 Sudeste 10 Sudeste 0 989.9 -- 88
2020-11-08 04:00:00 12 5 Este 14 Sudeste 0 990.1 -- 85
2020-11-08 03:00:00 13.1 9 Sudeste 16 Sudeste 0 990.1 -- 82
2020-11-08 02:00:00 13.8 5 Sudeste 24 Sudoeste 0 990.3 -- 79
2020-11-08 01:00:00 14.9 10 Sur 24 Sudoeste 0 990.5 -- 73
2020-11-08 00:00:00 15 11 Sur 18 Sur 0 990.6 -- 73
2020-11-07 23:00:00 14.3 8 Sudeste 13 Sudeste 0 990.5 -- 77
2020-11-07 22:00:00 14.1 8 Sudeste 15 Sudeste 0 990.4 -- 75
2020-11-07 21:00:00 14.8 4 Sur 11 Sudeste 0 990 -- 71
2020-11-07 20:00:00 15.3 7 Sudeste 12 Sudeste 0 989.8 -- 68
2020-11-07 19:00:00 16.3 3 Sur 9 Sur 0 989.4 -- 62
2020-11-07 18:00:00 18 6 Sudoeste 15 Sudoeste 0 988.9 -- 56
2020-11-07 17:00:00 19.4 11 Sudoeste 22 Sudoeste 0 988.5 -- 49
2020-11-07 16:00:00 19.6 9 Sudoeste 18 Sudoeste 0 988.2 -- 49
2020-11-07 15:00:00 18.6 8 Sudoeste 26 Sudoeste 0 988.3 -- 54
2020-11-07 14:00:00 18.4 11 Sudoeste 26 Sudoeste 0 988.1 -- 54
2020-11-07 13:00:00 18.7 14 Sudoeste 31 Sudoeste 0 988 -- 55
2020-11-07 12:00:00 17 14 Oeste 29 Oeste 0 987.8 -- 68
2020-11-07 11:00:00 15.5 10 Oeste 30 Sudoeste 0 987.1 -- 74
2020-11-07 10:00:00 15.1 13 Sudoeste 23 Sudoeste 0 986.3 -- 79
2020-11-07 09:00:00 13.6 9 Sur 22 Sudoeste 0 984.6 -- 87
2020-11-07 08:00:00 13.2 11 Sudoeste 21 Sur 0 983.2 -- 85
2020-11-07 07:00:00 13.2 12 Sur 22 Sur 0 982.3 -- 83
2020-11-07 06:00:00 13.8 7 Sudoeste 14 Sudeste 0 981.8 -- 79
2020-11-07 05:00:00 13.8 9 Sudeste 21 Sur 0 980.7 -- 80
2020-11-07 04:00:00 14.4 12 Sudeste 25 Sur 0 980.5 -- 77
2020-11-07 03:00:00 14.1 9 Sudeste 20 Sudeste 0.2 980.3 -- 84
2020-11-07 02:00:00 14.5 8 Sudeste 24 Sudoeste 3.8 980.2 -- 89
2020-11-07 01:00:00 15.6 8 Sur 21 Sudeste 1.4 981 -- 80
2020-11-07 00:00:00 15.1 5 Sudeste 9 Este 0.2 979.9 -- 83
2020-11-06 23:00:00 15.2 3 Sur 13 Sudeste 0.4 980.5 -- 79
2020-11-06 22:00:00 15.1 5 Nordeste 10 Nordeste 0 980.4 -- 74
2020-11-06 21:00:00 15.2 3 Nordeste 8 Norte 0 979.9 -- 75
2020-11-06 20:00:00 15.9 3 Sudeste 12 Oeste 0 980.3 -- 71
2020-11-06 19:00:00 16.9 8 Oeste 28 Sudoeste 0 980.1 -- 66
2020-11-06 18:00:00 20.6 11 Sur 33 Sur 0 978.6 -- 51
2020-11-06 17:00:00 19.8 11 Sudeste 18 Sudeste 0.4 978.5 -- 61
2020-11-06 16:00:00 21.5 11 Sudeste 18 Sudeste 0 977.3 -- 48
2020-11-06 15:00:00 21.9 9 Sudeste 17 Sudeste 0 977.6 -- 48
2020-11-06 14:00:00 21.1 7 Nordeste 15 Nordeste 0 978.3 -- 56
2020-11-06 13:00:00 18.9 7 Este 18 Sudeste 0 979.4 -- 59
2020-11-06 12:00:00 17.8 4 Este 26 Este 0 979.7 -- 65
2020-11-06 11:00:00 17.1 14 Este 31 Este 0 979 -0.8 66
2020-11-06 10:00:00 15.9 13 Este 29 Este 0 979.2 -- 69
2020-11-06 09:00:00 15.5 10 Este 25 Este 0 979.4 -- 71
2020-11-06 08:00:00 14.7 7 Nordeste 19 Nordeste 0 979.8 -- 76
2020-11-06 07:00:00 15.4 8 Nordeste 17 Este 0 980.5 -- 71
2020-11-06 06:00:00 15.7 6 Este 21 Sudeste 0 981.1 -- 69
2020-11-06 05:00:00 16 7 Este 22 Sudeste 0 981.2 -- 66
2020-11-06 04:00:00 15.9 12 Sudeste 27 Sudeste 0 981.6 -- 67
2020-11-06 03:00:00 15.4 17 Sudeste 27 Sudeste 0 981.8 -- 72
2020-11-06 02:00:00 14.9 8 Este 18 Este 0 982.2 -- 76
2020-11-06 01:00:00 14 5 Sudeste 17 Este 0 981.8 -- 84
2020-11-06 00:00:00 13.7 10 Este 22 Este 0 981.5 -- 86
2020-11-05 23:00:00 13.3 8 Este 21 Este 0 981.6 -- 85
2020-11-05 22:00:00 13.2 6 Este 24 Este 0 982.4 -- 84
2020-11-05 21:00:00 13.2 8 Este 19 Nordeste 0 982 -- 84
2020-11-05 20:00:00 13.3 9 Este 23 Este 0 982 -- 85
2020-11-05 19:00:00 13.7 13 Este 26 Este 0 981.5 -- 83
2020-11-05 18:00:00 14.1 9 Este 28 Este 0 981.1 -- 84
2020-11-05 17:00:00 14.3 10 Este 24 Este 0 981.4 -- 83
2020-11-05 16:00:00 14.3 14 Este 30 Este 0.2 981.5 -- 81
2020-11-05 15:00:00 14.4 22 Sudeste 39 Sudeste 1.4 981 -- 79
2020-11-05 14:00:00 14.9 15 Este 31 Sudeste 1.8 982 -- 84
2020-11-05 13:00:00 15.3 13 Este 27 Este 1 982.8 -- 85
2020-11-05 12:00:00 15.9 8 Este 24 Este 0 982.9 -- 80
2020-11-05 11:00:00 15.3 12 Este 25 Este 0 983.1 -- 79
2020-11-05 10:00:00 14.5 9 Este 27 Este 0.6 982.6 -- 87
2020-11-05 09:00:00 14.4 13 Este 29 Este 1.8 981.9 -- 87
2020-11-05 08:00:00 15 17 Este 33 Este 0 980.5 -- 78
2020-11-05 07:00:00 14.7 21 Este 35 Sudeste 0.2 979.9 -- 79
2020-11-05 06:00:00 13.5 12 Este 30 Nordeste 1 979.6 -- 89
2020-11-05 05:00:00 13.4 9 Nordeste 24 Este 1.4 979.9 -- 90
2020-11-05 04:00:00 13.7 11 Este 23 Este 0.6 980.8 -- 87
2020-11-05 03:00:00 14.2 9 Este 23 Este 0 980.8 -- 82
2020-11-05 02:00:00 14.4 9 Nordeste 23 Nordeste 0 980.3 -- 81
2020-11-05 01:00:00 14.2 7 Nordeste 16 Nordeste 0 981.3 -- 84
2020-11-05 00:00:00 14.1 6 Este 15 Este 0 981.8 -- 86
2020-11-04 23:00:00 13.6 7 Nordeste 24 Nordeste 0 981.6 -- 88
2020-11-04 22:00:00 13.5 10 Nordeste 22 Nordeste 0 981.4 -- 87
2020-11-04 21:00:00 14 8 Nordeste 18 Nordeste 0.2 981.3 -- 85
2020-11-04 20:00:00 14.3 6 Nordeste 15 Nordeste 0 981.2 -- 83
2020-11-04 19:00:00 15.1 2 Nordeste 11 Sudoeste 0 980.5 -- 84
2020-11-04 18:00:00 15.9 4 Sur 13 Nordeste 0 980.5 -- 82
2020-11-04 17:00:00 15.8 4 Nordeste 13 Nordeste 0 980.6 -- 85
2020-11-04 16:00:00 16.2 5 Norte 14 Norte 0 980.5 -- 86
2020-11-04 15:00:00 16.9 4 Norte 9 Norte 0 981 -- 82
2020-11-04 14:00:00 17.2 3 Noroeste 10 Sudoeste 0 982.2 -- 79
2020-11-04 13:00:00 15.4 3 Sudeste 8 Nordeste 0 983.2 -- 86
2020-11-04 12:00:00 15 2 Nordeste 9 Nordeste 0 984.2 -- 88
2020-11-04 11:00:00 14.6 3 Norte 10 Noroeste 1.6 984.7 -0.9 90
2020-11-04 10:00:00 14.5 2 Nordeste 11 Sudeste 0 985.2 -- 86
2020-11-04 09:00:00 14.1 5 Este 14 Este 0 985.4 -- 86
2020-11-04 08:00:00 13.6 4 Este 10 Sudeste 0 985.6 -- 89
2020-11-04 07:00:00 13.9 5 Este 10 Este 0 985.9 -- 85
2020-11-04 06:00:00 14.1 3 Sudoeste 13 Este 0 986.6 -- 85
2020-11-04 05:00:00 13.9 5 Nordeste 11 Nordeste 0 986.9 -- 92
2020-11-04 04:00:00 13.8 3 Noroeste 11 Sudeste 0 987.8 -- 92
2020-11-04 03:00:00 14.2 2 Sudeste 7 Sudeste 0 988.2 -- 91
2020-11-04 02:00:00 14.4 4 Sudeste 6 Sudeste 0 988.9 -- 90
2020-11-04 01:00:00 14.7 0 Calma 4 Nordeste 0 989.8 -- 90
2020-11-04 00:00:00 14.6 0 Calma 9 Norte 0 990.1 -- 90
2020-11-03 23:00:00 15.4 2 Norte 8 Sudeste 0 990.5 -- 87
2020-11-03 22:00:00 15.9 5 Sudeste 9 Sudeste 0 990.8 -- 84
2020-11-03 21:00:00 16.4 6 Sudeste 7 Sudeste 0 990.7 -- 81
2020-11-03 20:00:00 17.1 4 Sur 6 Sur 0 990.9 -- 79
2020-11-03 19:00:00 18.1 3 Sudoeste 5 Oeste 0 991 -- 76
2020-11-03 18:00:00 19.3 3 Oeste 5 Oeste 0 990.9 -- 70
2020-11-03 17:00:00 21.1 3 Sudoeste 8 Sudoeste 0 990.8 -- 61
2020-11-03 16:00:00 20.8 2 Sudeste 9 Sudoeste 0 990.9 -- 64
2020-11-03 15:00:00 20 3 Sur 9 Oeste 0 991.1 -- 68
2020-11-03 14:00:00 19.2 4 Oeste 8 Sudoeste 0 991.6 -- 72
2020-11-03 13:00:00 19.1 4 Oeste 8 Noroeste 0 991.7 -- 72
2020-11-03 12:00:00 18.2 5 Noroeste 10 Noroeste 0 992.2 -- 80
2020-11-03 11:00:00 17.4 4 Oeste 10 Oeste 0 992 -- 88
2020-11-03 10:00:00 16.5 5 Oeste 13 Sudoeste 0 992 -- 92
2020-11-03 09:00:00 16.2 3 Sudoeste 14 Oeste 0 991.4 -- 93
2020-11-03 08:00:00 16 3 Sur 11 Sudoeste 0 990.7 -- 93
2020-11-03 07:00:00 16.1 5 Sudoeste 12 Sudoeste 0 990.7 -- 92
2020-11-03 06:00:00 16 5 Sudoeste 12 Sur 0 990.7 -- 92
2020-11-03 05:00:00 16.2 5 Sudoeste 10 Sudoeste 0 990.6 -- 91
2020-11-03 04:00:00 16.4 6 Sudoeste 12 Oeste 0 990.9 -- 90
2020-11-03 03:00:00 16.4 4 Sudoeste 9 Sudoeste 0 991 -- 89
2020-11-03 02:00:00 16.3 4 Sur 8 Sudoeste 0 990.9 -- 90
2020-11-03 01:00:00 16.6 5 Sudoeste 9 Sudoeste 0 990.9 -- 89
2020-11-03 00:00:00 16.7 5 Sudoeste 10 Sudoeste 0 991 -- 88
2020-11-02 23:00:00 16.9 5 Sudoeste 9 Sudoeste 0 991.3 -- 87
2020-11-02 22:00:00 17.4 5 Sudoeste 8 Sudoeste 0 991.1 -- 86
2020-11-02 21:00:00 17.9 4 Sudoeste 7 Oeste 0 991.3 -- 84
2020-11-02 20:00:00 18.4 4 Oeste 9 Sudoeste 0 991 -- 80
2020-11-02 19:00:00 19.3 5 Sudoeste 9 Sudoeste 0 990.5 -- 76
2020-11-02 18:00:00 19.9 4 Oeste 10 Oeste 0 990.2 -- 72
2020-11-02 17:00:00 21.1 4 Oeste 9 Noroeste 0 990.1 -- 65
2020-11-02 16:00:00 22 3 Oeste 9 Sudoeste 0 989.9 -- 60
2020-11-02 15:00:00 21.8 3 Sudoeste 8 Oeste 0 990.1 -- 62
2020-11-02 14:00:00 19.8 4 Oeste 9 Sudoeste 0 990.9 -- 68
2020-11-02 13:00:00 18.9 3 Noroeste 8 Oeste 0 991.6 -- 70
2020-11-02 12:00:00 17.3 2 Noroeste 5 Norte 0 992.2 -- 76
2020-11-02 11:00:00 16.9 0 Calma 6 Noroeste 0 992.3 -- 77
2020-11-02 10:00:00 15.8 3 Nordeste 6 Nordeste 0 992.1 -- 80
2020-11-02 09:00:00 13.6 2 Norte 5 Norte 0 991.6 -- 88
2020-11-02 08:00:00 12.3 2 Nordeste 6 Sudeste 0 991.1 -- 89
2020-11-02 07:00:00 12.6 3 Sur 8 Sudeste 0 991 -- 89
2020-11-02 06:00:00 12.5 4 Sudeste 6 Sudeste 0 991 -- 89
2020-11-02 05:00:00 12.8 0 Calma 4 Nordeste 0 990.9 -- 90
2020-11-02 04:00:00 12.8 3 Norte 5 Norte 0 990.9 -- 89
2020-11-02 03:00:00 13 3 Sudeste 4 Sur 0 991.1 -- 85
2020-11-02 02:00:00 13.9 0 Calma 8 Sur 0 991.1 -- 83
2020-11-02 01:00:00 14.3 4 Sur 8 Sudeste 0 991.6 -- 82
2020-11-02 00:00:00 14.6 2 Sur 9 Sur 0 991.7 -- 79
2020-11-01 23:00:00 15.5 5 Sur 10 Sur 0 991.9 -- 77
2020-11-01 22:00:00 15.8 6 Sudoeste 8 Sudoeste 0 991.8 -- 75
2020-11-01 21:00:00 16.4 3 Sur 7 Sur 0 991.5 -- 74
2020-11-01 20:00:00 17.9 3 Sudoeste 7 Oeste 0 991.6 -- 70
2020-11-01 19:00:00 19.5 2 Sudoeste 5 Oeste 0 991.4 -- 64
2020-11-01 18:00:00 21.5 2 Sudoeste 9 Oeste 0 991.3 -- 56
2020-11-01 17:00:00 22.8 4 Oeste 9 Oeste 0 991.5 -- 49
2020-11-01 16:00:00 23.2 5 Oeste 10 Noroeste 0 991.8 -- 49
2020-11-01 15:00:00 22.7 3 Sudoeste 9 Sudoeste 0 992.2 -- 53
2020-11-01 14:00:00 21.1 0 Calma 9 Noroeste 0 992.7 -- 61
2020-11-01 13:00:00 19.5 2 Noroeste 5 Oeste 0 993.6 -- 69
2020-11-01 12:00:00 19.4 3 Sudeste 9 Norte 0 994.2 -- 66
2020-11-01 11:00:00 16.7 3 Noroeste 6 Noroeste 0 994.5 -- 77
2020-11-01 10:00:00 15.5 2 Oeste 9 Noroeste 0 994.1 -- 80
2020-11-01 09:00:00 14.7 0 Calma 5 Sudeste 0 993.7 -- 82
2020-11-01 08:00:00 11.5 5 Sudeste 7 Sudeste 0 993.1 -- 88
2020-11-01 07:00:00 11.9 0 Calma 3 Norte 0 993.1 -- 89
2020-11-01 06:00:00 12.6 2 Sur 4 Sudeste 0 993 -- 85
2020-11-01 05:00:00 13.1 5 Sudeste 8 Sudeste 0 992.8 -- 82
2020-11-01 04:00:00 13.6 4 Sur 8 Sur 0 992.9 -- 80
2020-11-01 03:00:00 13.8 2 Sudoeste 9 Sur 0 993.5 -- 80
2020-11-01 02:00:00 14.4 5 Sur 8 Sudoeste 0 993.4 -- 78
2020-11-01 01:00:00 14.5 3 Sur 7 Sudeste 0 993.5 -- 77
2020-11-01 00:00:00 15.3 4 Sudoeste 5 Sudoeste 0 993.7 -- 75
2020-10-31 23:00:00 15.8 3 Sudoeste 5 Sudoeste 0 993.4 -- 73
2020-10-31 22:00:00 16.6 3 Sur 8 Sudeste 0 993.1 -- 70
2020-10-31 21:00:00 17.5 4 Sur 7 Sudeste 0 992.7 -- 67
2020-10-31 20:00:00 18.6 5 Sudoeste 6 Sudoeste 0 993 -- 62
2020-10-31 19:00:00 20.5 4 Sudoeste 8 Oeste 0 992.5 -- 56
2020-10-31 18:00:00 23.1 3 Sudoeste 8 Oeste 0 992 -- 49
2020-10-31 17:00:00 25.7 5 Oeste 10 Sudoeste 0 991.7 -- 34
2020-10-31 16:00:00 25.1 4 Noroeste 11 Oeste 0 991.9 -- 35
2020-10-31 15:00:00 25.2 4 Oeste 9 Oeste 0 992.1 -- 39
2020-10-31 14:00:00 23.3 5 Oeste 10 Oeste 0 992.9 -- 42
2020-10-31 13:00:00 21.9 5 Noroeste 9 Oeste 0 993.7 -- 50
2020-10-31 12:00:00 21 3 Sudeste 8 Este 0 993.9 -- 52
2020-10-31 11:00:00 17.7 4 Oeste 8 Noroeste 0 994.4 -- 69
2020-10-31 10:00:00 15.6 3 Sur 6 Noroeste 0 994.3 -- 77
2020-10-31 09:00:00 12.3 4 Noroeste 8 Noroeste 0 994 -- 89
2020-10-31 08:00:00 11.4 2 Sudeste 6 Este 0 992.9 -- 90
2020-10-31 07:00:00 11.3 3 Sudeste 7 Sudeste 0 992.8 -- 89
2020-10-31 06:00:00 11.5 3 Sur 6 Sudoeste 0 992.7 -- 88
2020-10-31 05:00:00 12.3 3 Sudoeste 6 Oeste 0 992.3 -- 88
2020-10-31 04:00:00 12.9 2 Noroeste 4 Noroeste 0 992.2 -- 88
2020-10-31 03:00:00 13.2 2 Sudeste 10 Sudeste 0 992.2 -- 85
2020-10-31 02:00:00 13.7 5 Sudeste 6 Sudeste 0 992.1 -- 82
2020-10-31 01:00:00 14.3 2 Oeste 4 Oeste 0 992.4 -- 81
2020-10-31 00:00:00 14.9 0 Calma 3 Sudeste 0 992.2 -- 80
2020-10-30 23:00:00 15.9 2 Sur 4 Sudeste 0 992.2 -- 73
2020-10-30 22:00:00 17 2 Sur 5 Sudeste 0 992 -- 70
2020-10-30 21:00:00 18 3 Sudeste 4 Sudeste 0 991.6 -- 68
2020-10-30 20:00:00 19.3 0 Calma 3 Norte 0 991.5 -- 61
2020-10-30 19:00:00 20.7 0 Calma 4 Norte 0 991.2 -- 56
2020-10-30 18:00:00 23.1 0 Calma 10 Nordeste 0 991 -- 47
2020-10-30 17:00:00 25.4 4 Nordeste 12 Nordeste 0 991 -- 39
2020-10-30 16:00:00 26.1 5 Nordeste 13 Nordeste 0 991.2 -- 33
2020-10-30 15:00:00 25.6 4 Nordeste 14 Nordeste 0 991.6 -- 38
2020-10-30 14:00:00 24.7 4 Nordeste 12 Nordeste 0 992.2 -- 41
2020-10-30 13:00:00 23.2 4 Este 14 Este 0 992.9 -- 47
2020-10-30 12:00:00 20.7 8 Este 17 Este 0 993.5 -- 51
2020-10-30 11:00:00 18.9 6 Este 14 Este 0 993.7 -- 61
2020-10-30 10:00:00 17.1 5 Este 15 Este 0 993.8 -- 66
2020-10-30 09:00:00 14.9 4 Este 10 Este 0 993.6 -- 76
2020-10-30 08:00:00 12.6 4 Este 9 Este 0 992.8 -- 87
2020-10-30 07:00:00 12.2 3 Nordeste 8 Este 0 992.7 -- 89
2020-10-30 06:00:00 12.9 3 Este 8 Este 0 992.6 -- 89
2020-10-30 05:00:00 13.3 3 Este 9 Nordeste 0 992.4 -- 88
2020-10-30 04:00:00 13.6 3 Nordeste 9 Nordeste 0 992.6 -- 89
2020-10-30 03:00:00 13.5 4 Nordeste 6 Nordeste 0 992.6 -- 90
2020-10-30 02:00:00 13.8 3 Nordeste 5 Nordeste 0 992.7 -- 89
2020-10-30 01:00:00 14.2 3 Nordeste 5 Nordeste 0 992.8 -- 86
2020-10-30 00:00:00 15.5 3 Norte 10 Sudeste 0 993.1 -- 81
2020-10-29 23:00:00 15.9 3 Este 8 Este 0 993.1 -- 80
2020-10-29 22:00:00 17.1 4 Sudeste 11 Este 0 992.9 -- 74
2020-10-29 21:00:00 18 4 Este 14 Este 0 992.5 -- 70
2020-10-29 20:00:00 18.7 6 Nordeste 14 Nordeste 0 992.4 -- 67
2020-10-29 19:00:00 19.4 6 Nordeste 13 Nordeste 0 992.1 -- 67
2020-10-29 18:00:00 21.3 5 Nordeste 14 Nordeste 0 991.9 -- 60
2020-10-29 17:00:00 22.8 6 Nordeste 17 Nordeste 0 991.8 -- 50
2020-10-29 16:00:00 23.3 5 Nordeste 16 Nordeste 0 991.9 -- 51
2020-10-29 15:00:00 23.1 5 Nordeste 18 Nordeste 0 992.3 -- 52
2020-10-29 14:00:00 22.1 8 Este 20 Sudeste 0 992.9 -- 52
2020-10-29 13:00:00 20.6 8 Este 26 Este 0 993.9 -- 58
2020-10-29 12:00:00 19.1 12 Este 23 Este 0 994.4 -- 64
2020-10-29 11:00:00 17.6 12 Sudeste 21 Este 0 994.7 -- 71
2020-10-29 10:00:00 15.5 7 Este 17 Sudeste 0 994.8 -- 82
2020-10-29 09:00:00 13.3 5 Nordeste 10 Nordeste 0 994.4 -- 94
2020-10-29 08:00:00 11 3 Nordeste 6 Nordeste 0 993.7 -- 94
2020-10-29 07:00:00 11 3 Norte 7 Norte 0 993.3 -- 93
2020-10-29 06:00:00 12.2 2 Nordeste 11 Sudeste 0 992.8 -- 91
2020-10-29 05:00:00 12.5 6 Sudeste 9 Sudeste 0 992.6 -- 91
2020-10-29 04:00:00 12.9 5 Sudeste 9 Sudeste 0 992.5 -- 91
2020-10-29 03:00:00 13 0 Calma 6 Sudeste 0 992.9 -- 91
2020-10-29 02:00:00 13.6 0 Calma 5 Noroeste 0 992.6 -- 91
2020-10-29 01:00:00 14.2 2 Noroeste 7 Sudeste 0 992.7 -- 87
2020-10-29 00:00:00 15.3 5 Sudeste 7 Sudeste 0 992.6 -- 83
2020-10-28 23:00:00 15.8 3 Sudeste 7 Sur 0 992.7 -- 83
2020-10-28 22:00:00 16.2 4 Sudeste 6 Sur 0 992.6 -- 82
2020-10-28 21:00:00 16.9 3 Sur 5 Sur 0 992.7 -- 76
2020-10-28 20:00:00 17.3 0 Calma 6 Norte 0 992.3 -- 73
2020-10-28 19:00:00 18.2 2 Norte 8 Norte 0 991.7 -- 70
2020-10-28 18:00:00 18.5 3 Norte 11 Noroeste 0 991 -- 68
2020-10-28 17:00:00 19.1 3 Noroeste 9 Nordeste 0 990.8 -- 64
2020-10-28 16:00:00 20 3 Este 10 Noroeste 0 990.8 -- 60
2020-10-28 15:00:00 20 5 Oeste 12 Sudoeste 0 991.1 -- 58
2020-10-28 14:00:00 19 4 Oeste 9 Oeste 0 991.7 -- 58
2020-10-28 13:00:00 18.8 4 Sur 9 Sudoeste 0 992 -- 57
2020-10-28 12:00:00 18.1 5 Sudeste 10 Sudeste 0 992.3 -- 59
2020-10-28 11:00:00 16.5 4 Oeste 10 Sudoeste 0 992 -- 66
2020-10-28 10:00:00 15.3 3 Sur 6 Sudeste 0 991.6 -- 73
2020-10-28 09:00:00 14.1 3 Sudoeste 6 Sudoeste 0 991.1 -- 77
2020-10-28 08:00:00 13.5 4 Sudoeste 6 Sudoeste 0 990.1 -- 79
2020-10-28 07:00:00 13.5 0 Calma 6 Sur 0 989.8 -- 80
2020-10-28 06:00:00 13.4 3 Sudoeste 6 Sudoeste 0 989.6 -- 79
2020-10-28 05:00:00 13.3 4 Sudoeste 6 Sudoeste 0 989.2 -- 78
2020-10-28 04:00:00 13.3 2 Sudoeste 8 Sudoeste 0 989.4 -- 79
2020-10-28 03:00:00 13.3 4 Oeste 10 Sudoeste 0 989.5 -- 78
2020-10-28 02:00:00 13.1 3 Oeste 6 Sudoeste 0 989.5 -- 79
2020-10-28 01:00:00 13.2 3 Sudoeste 6 Sudoeste 0 989.7 -- 78
2020-10-28 00:00:00 13.3 4 Sur 9 Sur 0 989.7 -- 77
2020-10-27 23:00:00 13.1 5 Sur 9 Sur 0 989.9 -- 76
2020-10-27 22:00:00 13 4 Sur 6 Sur 0 989.6 -- 77
2020-10-27 21:00:00 13.6 5 Sudoeste 8 Sudoeste 0 989.3 -- 75
2020-10-27 20:00:00 14.4 4 Sudoeste 8 Sudoeste 0 989.4 -- 72
2020-10-27 19:00:00 15.4 3 Sudoeste 8 Sudoeste 0 989.2 -- 65
2020-10-27 18:00:00 16 4 Oeste 13 Oeste 0 989.2 -- 59
2020-10-27 17:00:00 17 6 Oeste 17 Oeste 0 989 -- 54
2020-10-27 16:00:00 16.8 9 Oeste 26 Oeste 0 989.1 -- 54
2020-10-27 15:00:00 16.8 6 Oeste 19 Oeste 0 989.4 -- 54
2020-10-27 14:00:00 16 7 Oeste 18 Noroeste 0 989.7 -- 55
2020-10-27 13:00:00 16.5 6 Oeste 15 Noroeste 0 990.3 -- 54
2020-10-27 12:00:00 15.3 8 Oeste 14 Noroeste 0 990.7 -- 59
2020-10-27 11:00:00 13.9 8 Sudoeste 14 Sudoeste 0 990.8 -- 64
2020-10-27 10:00:00 11.7 8 Sudoeste 14 Sudoeste 0 990.9 -- 74
2020-10-27 09:00:00 9.2 6 Sudoeste 10 Oeste 0 990.7 -- 85
2020-10-27 08:00:00 7.6 7 Sudoeste 12 Sudoeste 0 990.2 -- 87
2020-10-27 07:00:00 8 8 Sudoeste 12 Sudoeste 0 989.9 -- 86
2020-10-27 06:00:00 7.9 6 Sudoeste 10 Sudoeste 0 989.9 -- 86
2020-10-27 05:00:00 8 3 Sur 11 Sudoeste 0 989.4 -- 86
2020-10-27 04:00:00 8.4 6 Sur 13 Oeste 0 989.8 -- 83
2020-10-27 03:00:00 9.2 6 Oeste 13 Oeste 0 990.1 -- 79
2020-10-27 02:00:00 9.3 6 Sudoeste 13 Sudoeste 0 990.2 -- 78
2020-10-27 01:00:00 9.6 6 Sudoeste 10 Sudoeste 0 990.5 -- 78
2020-10-27 00:00:00 10.2 6 Sudoeste 12 Sudoeste 0 990.5 -- 75